Accueil
METAR-TAF:

METAR-TAF

Aéroports :

Aéroport international de Berne

Berne, Suisse

latitude: 46-55N, longitude: 007-30E, altitude: 505 m

Observation

Le bulletin a été fait il y a 33 minutes, à 03:20 UTC
Vent 1 kt de direction variable
Température -3°C
Humidité 93%
Pression 1014 hPa
Visibilité: 7000 m
Quelques nuages à une hauteur de 100 ft

METAR: LSZB 030320Z AUTO VRB01KT 7000 FEW001 M03/M04 Q1014 REFZDZ

Heure: 04:53 (03:53 UTC)

Prévision

Le bulletin a été fait il y a 1 heure et 28 minutes, à 02:25 UTC
Prévision valable du 03 à 03 UTC au 03 à 12 UTC
Vent 2 kt de direction variable
Visibilité: 8000 m
Probabilité 40%
du 03 à 04 UTC au 03 à 09 UTC
Nuages fragmentés à une hauteur de 900 ft

TAF: LSZB 030225Z 0303/0312 VRB02KT 8000 NSC PROB40 0304/0309 BKN009

Observations et prévisions météorologiques de plus de 4000 aéroports (messages METAR et TAF).

Les stations disponibles sont représentées par des disques jaunes et rouges sur la carte.

Passer la souris dessus pour voir le nom de la station.

Cliquer dessus pour voir les observations et prévisions météorologiques.

Pour changer de carte: cliquez sur les boutons verts avec une croix noire pour zoomer, sur le bouton vert avec un tiret pour effectuer un zoom arrière, ou sur les flèches vertes pour les cartes adjacentes.


METAR-TAF: